createdAt,value
2022-11-12T00:14:16.444Z,2.40
2022-11-12T00:32:55.447Z,3.80
2022-11-12T00:51:33.556Z,2.60
2022-11-12T01:10:13.405Z,2.80
2022-11-12T01:28:52.785Z,2.80
2022-11-12T01:47:33.057Z,3.20
2022-11-12T02:06:12.730Z,2.20
2022-11-12T02:24:52.073Z,3.40
2022-11-12T02:43:31.780Z,3.00
2022-11-12T03:02:10.959Z,2.30
2022-11-12T03:20:50.653Z,2.00
2022-11-12T03:39:29.520Z,2.00
2022-11-12T04:16:42.737Z,3.00
2022-11-12T04:35:23.866Z,2.20
2022-11-12T04:54:05.270Z,2.80
2022-11-12T05:12:42.651Z,4.80
2022-11-12T05:31:22.057Z,2.90
2022-11-12T05:49:59.951Z,2.40
2022-11-12T06:08:38.897Z,3.20
2022-11-12T06:27:19.183Z,3.10
2022-11-12T06:45:59.292Z,1.90
2022-11-12T07:04:39.385Z,3.20
2022-11-12T07:41:54.523Z,2.60
2022-11-12T08:00:35.952Z,2.40
2022-11-12T08:19:16.131Z,3.10
2022-11-12T08:37:57.939Z,3.40
2022-11-12T08:56:39.622Z,4.10
2022-11-12T09:34:06.188Z,3.90
2022-11-12T10:11:28.395Z,2.00
2022-11-12T10:30:13.628Z,2.20
2022-11-12T10:48:52.972Z,2.00
2022-11-12T11:07:37.032Z,7.90
2022-11-12T11:45:06.347Z,2.60
2022-11-12T12:22:12.327Z,4.80
2022-11-12T12:40:47.620Z,3.50
2022-11-12T12:59:24.156Z,3.00
2022-11-12T13:18:04.138Z,3.40
2022-11-12T13:36:46.865Z,6.80
2022-11-12T13:55:24.172Z,4.60
2022-11-12T14:14:04.663Z,4.20
2022-11-12T14:32:44.105Z,4.70
2022-11-12T14:51:20.541Z,5.90
2022-11-12T15:10:05.301Z,6.70
2022-11-12T15:28:32.916Z,5.00
2022-11-12T15:47:10.958Z,8.20
2022-11-12T16:05:48.599Z,7.90
2022-11-12T16:24:26.551Z,8.70
2022-11-12T16:43:05.745Z,6.40
2022-11-12T17:01:44.401Z,6.10
2022-11-12T17:20:22.529Z,6.70
2022-11-12T17:39:04.932Z,6.80
2022-11-12T17:57:41.793Z,7.40
2022-11-12T18:16:20.082Z,12.60
2022-11-12T18:34:59.350Z,5.10
2022-11-12T18:53:37.215Z,5.60
2022-11-12T19:12:15.999Z,9.60
2022-11-12T19:30:53.870Z,6.80
2022-11-12T19:49:33.036Z,14.80
2022-11-12T20:08:12.092Z,5.10
2022-11-12T20:26:51.012Z,10.50
2022-11-12T20:45:30.793Z,10.10
2022-11-12T21:04:11.284Z,17.00
2022-11-12T21:22:50.546Z,15.70
2022-11-12T21:41:29.388Z,12.70
2022-11-12T22:00:40.135Z,15.40
2022-11-12T22:18:50.323Z,12.30
2022-11-12T22:37:29.660Z,6.60
2022-11-12T22:56:10.529Z,12.10
2022-11-12T23:14:48.967Z,9.20
2022-11-12T23:33:29.215Z,14.30
2022-11-12T23:52:13.162Z,11.20
